Time;durP1;ratioP1;P1;durP2;ratioP2;P2;SDS_P1;SDS_P2;PMS_P1;PMS_P2;Temp;Humidity;BMP_temperature;BMP_pressure;BME280_temperature;BME280_humidity;BME280_pressure;Samples;Min_cycle;Max_cycle;Signal;HPM_P1;HPM_P2
2023/09/18 00:01:55;;;;;;;10.65;9.38;;;18.10;67.50;;;;;;5031569;28;20409;-57
2023/09/18 00:04:20;;;;;;;11.85;10.15;;;18.10;67.60;;;;;;5031189;28;20547;-58
2023/09/18 00:06:46;;;;;;;12.15;10.25;;;18.10;67.70;;;;;;5031281;28;20018;-58
2023/09/18 00:09:13;;;;;;;11.43;9.57;;;18.10;67.90;;;;;;5031081;28;20033;-58
2023/09/18 00:11:40;;;;;;;11.90;10.55;;;18.10;68.00;;;;;;5031424;28;20030;-58
2023/09/18 00:14:07;;;;;;;12.90;10.52;;;18.00;68.10;;;;;;5031251;28;20028;-58
2023/09/18 00:16:33;;;;;;;11.77;9.85;;;18.00;68.20;;;;;;5030996;28;20030;-58
2023/09/18 00:18:58;;;;;;;11.85;10.55;;;18.00;68.10;;;;;;5031088;28;20021;-59
2023/09/18 00:21:25;;;;;;;12.48;9.95;;;17.90;68.00;;;;;;5031413;28;20053;-58
2023/09/18 00:23:51;;;;;;;12.35;10.70;;;17.90;67.90;;;;;;5031271;28;20029;-58
2023/09/18 00:26:17;;;;;;;11.95;10.35;;;17.90;68.10;;;;;;5030903;28;20025;-59
2023/09/18 00:28:43;;;;;;;12.13;10.05;;;17.90;67.90;;;;;;5030940;28;20033;-58
2023/09/18 00:31:09;;;;;;;11.00;9.90;;;17.90;67.60;;;;;;5030766;28;20034;-57
2023/09/18 00:33:35;;;;;;;12.05;10.18;;;17.90;67.50;;;;;;5030725;28;20028;-58
2023/09/18 00:36:01;;;;;;;11.90;10.70;;;17.90;67.40;;;;;;5031362;28;20033;-58
2023/09/18 00:38:26;;;;;;;15.43;13.57;;;17.90;67.90;;;;;;5030550;28;20022;-58
2023/09/18 00:40:52;;;;;;;13.85;12.38;;;18.00;67.20;;;;;;5030639;28;20055;-58
2023/09/18 00:43:18;;;;;;;14.75;12.25;;;17.90;66.90;;;;;;5030449;28;20458;-58
2023/09/18 00:45:45;;;;;;;16.15;13.15;;;18.00;66.80;;;;;;5030569;28;20029;-58
2023/09/18 00:48:12;;;;;;;14.40;12.88;;;18.00;66.70;;;;;;5030490;28;20033;-59
2023/09/18 00:50:38;;;;;;;15.00;12.45;;;18.00;67.00;;;;;;5030744;28;20025;-57
2023/09/18 00:53:04;;;;;;;14.85;13.35;;;18.00;67.20;;;;;;5030561;28;20063;-58
2023/09/18 00:55:30;;;;;;;15.10;13.27;;;18.00;67.30;;;;;;5030194;28;20041;-58
2023/09/18 00:57:56;;;;;;;16.35;12.77;;;18.00;67.40;;;;;;5030486;28;20401;-58
2023/09/18 01:00:22;;;;;;;17.67;13.77;;;18.00;67.40;;;;;;5030541;28;20051;-59
2023/09/18 01:02:48;;;;;;;18.98;12.90;;;18.00;67.20;;;;;;5030274;28;20014;-59
2023/09/18 01:05:17;;;;;;;14.65;12.32;;;17.90;66.80;;;;;;5030383;28;20113;-59
2023/09/18 01:07:43;;;;;;;14.63;12.25;;;18.00;66.90;;;;;;5030374;28;20474;-57
2023/09/18 01:10:10;;;;;;;14.90;10.95;;;18.00;66.80;;;;;;5030626;28;20109;-58
2023/09/18 01:12:43;;;;;;;13.27;11.55;;;18.00;66.50;;;;;;5012868;28;20535;-58
2023/09/18 01:15:14;;;;;;;13.32;11.50;;;18.00;66.50;;;;;;5030400;28;20026;-58
2023/09/18 01:17:41;;;;;;;13.70;12.02;;;18.00;66.60;;;;;;5030308;28;20075;-58
2023/09/18 01:20:10;;;;;;;14.90;12.50;;;18.00;66.80;;;;;;5030533;28;20079;-58
2023/09/18 01:22:35;;;;;;;14.70;12.93;;;18.00;67.50;;;;;;5030242;28;20026;-58
2023/09/18 01:25:02;;;;;;;15.10;12.52;;;18.00;66.70;;;;;;5012353;28;20072;-58
2023/09/18 01:27:28;;;;;;;13.63;11.73;;;18.00;67.00;;;;;;5030436;28;20033;-58
2023/09/18 01:29:53;;;;;;;12.93;11.50;;;18.00;67.20;;;;;;5030199;28;20623;-58
2023/09/18 01:32:21;;;;;;;13.00;11.32;;;18.00;67.40;;;;;;5030083;28;20017;-58
2023/09/18 01:34:52;;;;;;;12.43;10.88;;;18.00;67.40;;;;;;5030301;28;20041;-58
2023/09/18 01:37:23;;;;;;;14.52;11.00;;;17.90;67.50;;;;;;5030431;28;20017;-58
2023/09/18 01:39:51;;;;;;;12.32;11.10;;;17.90;67.60;;;;;;5030054;28;20025;-58
2023/09/18 01:42:17;;;;;;;12.23;10.70;;;17.90;67.50;;;;;;5030069;28;20030;-58
2023/09/18 01:44:43;;;;;;;13.10;10.93;;;17.90;67.30;;;;;;5029895;28;20040;-58
2023/09/18 01:47:12;;;;;;;13.48;11.82;;;17.90;67.60;;;;;;5030036;28;20021;-58
2023/09/18 01:49:40;;;;;;;12.73;11.25;;;17.90;67.50;;;;;;5030034;28;20496;-59
2023/09/18 01:52:06;;;;;;;12.52;10.82;;;17.90;67.70;;;;;;5030025;28;20025;-58
2023/09/18 01:54:33;;;;;;;15.73;12.23;;;17.90;67.70;;;;;;5029780;28;20030;-58
2023/09/18 01:56:59;;;;;;;13.82;11.68;;;17.80;67.90;;;;;;5014007;28;20433;-58
2023/09/18 01:59:25;;;;;;;17.73;11.98;;;17.80;68.10;;;;;;5033644;28;20377;-58
2023/09/18 02:01:51;;;;;;;14.48;11.55;;;17.80;68.30;;;;;;5033569;28;20470;-58
2023/09/18 02:04:17;;;;;;;15.50;12.40;;;17.80;68.30;;;;;;5033601;28;20392;-58
2023/09/18 02:06:44;;;;;;;16.02;12.75;;;17.70;68.50;;;;;;5033614;28;20032;-58
2023/09/18 02:09:10;;;;;;;14.68;12.48;;;17.60;68.70;;;;;;5033671;28;20025;-58
2023/09/18 02:11:41;;;;;;;13.55;12.00;;;17.60;68.80;;;;;;5033595;28;20026;-58
2023/09/18 02:14:07;;;;;;;13.68;11.95;;;17.60;69.00;;;;;;5033338;28;20025;-58
2023/09/18 02:16:33;;;;;;;15.63;13.10;;;17.50;69.10;;;;;;5033356;28;20034;-58
2023/09/18 02:18:59;;;;;;;13.85;12.30;;;17.50;69.20;;;;;;5033445;28;20025;-58
2023/09/18 02:21:26;;;;;;;16.88;13.73;;;17.50;69.30;;;;;;5033168;28;20032;-58
2023/09/18 02:23:53;;;;;;;15.05;12.90;;;17.40;69.20;;;;;;5033360;28;20071;-58
2023/09/18 02:26:19;;;;;;;13.95;11.75;;;17.40;69.40;;;;;;5033123;28;20025;-58
2023/09/18 02:28:45;;;;;;;14.98;12.13;;;17.40;69.50;;;;;;5033027;28;20029;-58
2023/09/18 02:31:10;;;;;;;13.95;12.05;;;17.40;69.60;;;;;;5032960;28;20112;-58
2023/09/18 02:33:40;;;;;;;14.48;11.98;;;17.30;69.70;;;;;;5032998;28;20025;-59
2023/09/18 02:36:06;;;;;;;15.95;11.90;;;17.30;69.70;;;;;;5033119;28;20025;-58
2023/09/18 02:38:33;;;;;;;14.10;11.65;;;17.20;70.00;;;;;;5032931;28;20026;-58
2023/09/18 02:40:59;;;;;;;13.23;11.65;;;17.20;70.00;;;;;;5031812;28;20033;-58
2023/09/18 02:43:25;;;;;;;14.32;11.82;;;17.20;70.80;;;;;;5032941;28;20053;-58
2023/09/18 02:45:51;;;;;;;12.35;10.63;;;17.20;70.20;;;;;;5032713;28;20064;-58
2023/09/18 02:48:17;;;;;;;12.45;11.15;;;17.10;70.20;;;;;;5032750;28;20029;-57
2023/09/18 02:50:44;;;;;;;13.55;10.38;;;17.10;70.30;;;;;;5033064;28;20104;-58
2023/09/18 02:53:17;;;;;;;15.43;11.35;;;17.10;70.40;;;;;;5032855;28;20389;-59
2023/09/18 02:55:43;;;;;;;12.73;11.18;;;17.10;70.40;;;;;;5031520;28;20033;-57
2023/09/18 02:58:10;;;;;;;13.13;10.85;;;17.10;70.50;;;;;;5030681;28;20207;-58
2023/09/18 03:00:43;;;;;;;12.68;10.63;;;17.00;70.60;;;;;;5030716;28;20021;-59
2023/09/18 03:03:09;;;;;;;14.10;10.10;;;17.00;70.60;;;;;;5030755;28;20135;-58
2023/09/18 03:05:34;;;;;;;11.40;9.93;;;17.00;70.70;;;;;;5030589;28;20428;-59
2023/09/18 03:08:00;;;;;;;11.73;10.45;;;17.00;70.70;;;;;;5030082;28;20025;-59
2023/09/18 03:10:26;;;;;;;13.57;10.73;;;17.10;70.70;;;;;;5031092;28;20026;-58
2023/09/18 03:12:51;;;;;;;11.45;10.35;;;17.00;70.70;;;;;;5032308;28;20783;-59
2023/09/18 03:15:17;;;;;;;13.80;11.00;;;17.10;70.80;;;;;;5014297;28;20045;-59
2023/09/18 03:17:43;;;;;;;11.82;10.43;;;17.10;70.80;;;;;;5014296;28;20027;-58
2023/09/18 03:20:09;;;;;;;12.85;11.35;;;17.10;70.80;;;;;;5032353;28;20359;-58
2023/09/18 03:22:35;;;;;;;12.40;11.13;;;17.00;70.80;;;;;;5032288;28;20362;-58
2023/09/18 03:25:01;;;;;;;16.70;12.00;;;17.00;70.80;;;;;;5032007;28;20082;-58
2023/09/18 03:27:28;;;;;;;14.73;12.00;;;17.00;70.80;;;;;;5032080;28;20091;-59
2023/09/18 03:29:57;;;;;;;14.18;11.52;;;17.00;70.80;;;;;;5032231;28;20013;-59
2023/09/18 03:32:23;;;;;;;18.20;13.65;;;17.00;70.90;;;;;;5031688;28;20111;-58
2023/09/18 03:34:52;;;;;;;15.18;12.82;;;17.00;70.80;;;;;;5031919;28;20072;-57
2023/09/18 03:37:17;;;;;;;18.38;12.13;;;17.00;70.70;;;;;;5032050;28;20033;-59
2023/09/18 03:39:44;;;;;;;16.35;12.40;;;17.10;71.50;;;;;;5031632;28;20029;-58
2023/09/18 03:42:09;;;;;;;14.40;11.75;;;17.10;70.90;;;;;;5031630;28;20069;-58
2023/09/18 03:44:35;;;;;;;14.02;11.50;;;17.00;70.50;;;;;;5031757;28;20057;-59
2023/09/18 03:47:01;;;;;;;14.88;11.75;;;17.10;70.50;;;;;;5031650;28;20048;-59
2023/09/18 03:49:27;;;;;;;14.90;11.65;;;17.10;70.60;;;;;;5031434;28;20022;-59
2023/09/18 03:51:53;;;;;;;17.13;11.35;;;17.10;70.60;;;;;;5031386;28;20025;-60
2023/09/18 03:54:19;;;;;;;15.80;12.98;;;17.10;70.70;;;;;;5029436;28;20044;-57
2023/09/18 03:56:46;;;;;;;15.18;12.25;;;17.10;70.70;;;;;;5029401;28;20508;-59
2023/09/18 03:59:12;;;;;;;12.80;11.43;;;17.20;70.80;;;;;;5030560;28;20562;-58
2023/09/18 04:01:37;;;;;;;14.02;11.85;;;17.20;70.80;;;;;;5031350;28;20473;-59
2023/09/18 04:04:03;;;;;;;14.98;11.63;;;17.20;70.80;;;;;;5031086;28;20025;-59
2023/09/18 04:06:37;;;;;;;17.52;11.50;;;17.20;70.80;;;;;;5031188;28;20026;-59
2023/09/18 04:09:03;;;;;;;14.73;12.68;;;17.30;70.70;;;;;;5031181;28;20021;-58
2023/09/18 04:11:32;;;;;;;12.80;10.45;;;17.30;71.10;;;;;;5031500;28;20025;-60
2023/09/18 04:13:59;;;;;;;12.68;11.35;;;17.40;71.20;;;;;;5031006;28;20390;-59
2023/09/18 04:16:25;;;;;;;13.80;11.38;;;17.40;71.10;;;;;;5031207;28;20029;-59
2023/09/18 04:18:50;;;;;;;16.77;12.55;;;17.40;71.40;;;;;;5030249;28;20051;-59
2023/09/18 04:21:16;;;;;;;16.35;12.30;;;17.40;71.20;;;;;;5031013;28;20100;-59
2023/09/18 04:23:42;;;;;;;16.92;13.50;;;17.50;71.40;;;;;;5030799;28;20030;-58
2023/09/18 04:26:07;;;;;;;15.52;13.75;;;17.50;71.50;;;;;;5030891;28;20385;-59
2023/09/18 04:28:33;;;;;;;15.55;13.70;;;17.50;71.30;;;;;;5030750;28;20033;-57
2023/09/18 04:30:58;;;;;;;16.25;13.65;;;17.60;70.70;;;;;;5030766;28;20041;-59
2023/09/18 04:33:25;;;;;;;17.05;12.93;;;17.60;70.00;;;;;;5014412;28;20026;-58
2023/09/18 04:35:51;;;;;;;16.33;13.23;;;17.60;69.50;;;;;;5010151;28;20490;-59
2023/09/18 04:38:16;;;;;;;17.23;13.32;;;17.70;69.30;;;;;;5008750;28;20022;-59
2023/09/18 04:40:42;;;;;;;17.38;13.10;;;17.80;69.20;;;;;;4992230;28;20036;-58
2023/09/18 04:43:08;;;;;;;17.25;13.32;;;17.80;69.20;;;;;;5010080;28;20528;-58
2023/09/18 04:45:34;;;;;;;17.38;13.45;;;17.90;69.90;;;;;;5010782;28;20049;-59
2023/09/18 04:47:59;;;;;;;17.15;14.50;;;18.00;69.80;;;;;;5009539;28;20034;-57
2023/09/18 04:50:28;;;;;;;19.02;13.15;;;18.00;70.00;;;;;;5008994;28;20029;-56
2023/09/18 04:52:55;;;;;;;17.08;12.93;;;18.10;69.90;;;;;;5008890;28;20034;-57
2023/09/18 04:55:21;;;;;;;16.15;11.73;;;18.10;69.90;;;;;;5009831;28;20026;-57
2023/09/18 04:57:47;;;;;;;14.93;11.95;;;18.20;69.40;;;;;;5008311;28;20037;-57
2023/09/18 05:00:13;;;;;;;14.73;11.30;;;18.20;68.80;;;;;;5007454;28;20040;-56
2023/09/18 05:02:40;;;;;;;14.68;11.32;;;18.30;68.30;;;;;;5006992;28;20157;-58
2023/09/18 05:05:09;;;;;;;17.13;11.70;;;18.40;68.40;;;;;;5007002;28;20485;-57
2023/09/18 05:07:35;;;;;;;15.02;11.02;;;18.40;68.20;;;;;;5006910;28;20251;-57
2023/09/18 05:10:00;;;;;;;13.60;11.48;;;18.50;67.70;;;;;;5006739;28;20030;-57
2023/09/18 05:12:26;;;;;;;13.38;10.82;;;18.60;67.50;;;;;;5006725;28;20034;-58
2023/09/18 05:14:52;;;;;;;14.52;11.45;;;18.70;67.30;;;;;;5008253;28;20042;-58
2023/09/18 05:17:18;;;;;;;14.82;10.80;;;18.70;67.00;;;;;;5008882;28;20375;-58
2023/09/18 05:19:44;;;;;;;14.52;10.65;;;18.80;66.80;;;;;;5010401;28;20061;-58
2023/09/18 05:22:10;;;;;;;13.63;11.45;;;18.90;66.60;;;;;;5009131;28;20022;-58
2023/09/18 05:24:37;;;;;;;14.05;10.43;;;18.90;66.40;;;;;;5010054;28;20021;-57
2023/09/18 05:27:03;;;;;;;13.25;11.35;;;19.00;65.90;;;;;;5010459;28;20021;-58
2023/09/18 05:29:29;;;;;;;14.82;11.30;;;19.00;65.60;;;;;;5010161;28;20022;-58
2023/09/18 05:31:54;;;;;;;13.50;11.88;;;19.00;65.60;;;;;;5013983;28;20018;-58
2023/09/18 05:34:20;;;;;;;14.52;11.35;;;19.10;65.80;;;;;;5014078;28;20414;-58
2023/09/18 05:36:46;;;;;;;12.98;11.48;;;19.10;65.80;;;;;;5014243;28;20026;-57
2023/09/18 05:39:12;;;;;;;16.35;10.95;;;19.10;65.70;;;;;;5013650;28;20030;-57
2023/09/18 05:41:39;;;;;;;14.55;11.35;;;19.20;65.60;;;;;;5012538;28;20053;-56
2023/09/18 05:44:07;;;;;;;11.98;10.68;;;19.20;65.50;;;;;;5012306;28;20026;-58
2023/09/18 05:46:35;;;;;;;14.13;11.05;;;19.20;65.20;;;;;;5012145;28;20030;-56
2023/09/18 05:49:01;;;;;;;11.35;10.15;;;19.30;65.10;;;;;;5012176;28;20026;-56
2023/09/18 05:51:27;;;;;;;15.02;11.75;;;19.30;65.10;;;;;;5011859;28;20022;-57
2023/09/18 05:53:53;;;;;;;14.20;10.20;;;19.30;65.10;;;;;;5011506;28;20036;-58
2023/09/18 05:56:18;;;;;;;11.32;9.93;;;19.40;65.00;;;;;;4994833;28;20053;-57
2023/09/18 05:58:44;;;;;;;15.20;10.50;;;19.40;65.00;;;;;;5013790;28;20450;-57
2023/09/18 06:01:10;;;;;;;11.90;10.35;;;19.50;64.80;;;;;;5012811;28;20480;-58
2023/09/18 06:03:35;;;;;;;14.10;9.88;;;19.70;64.50;;;;;;5013536;28;20462;-57
2023/09/18 06:06:10;;;;;;;11.27;9.55;;;19.80;64.20;;;;;;5013949;28;20061;-58
2023/09/18 06:08:36;;;;;;;17.40;11.07;;;19.80;63.80;;;;;;5013687;28;20072;-58
2023/09/18 06:11:01;;;;;;;13.80;10.45;;;19.90;64.00;;;;;;5013619;28;20486;-57
2023/09/18 06:13:27;;;;;;;15.40;11.68;;;19.90;63.80;;;;;;5013536;28;20030;-58
2023/09/18 06:15:56;;;;;;;12.50;10.95;;;19.90;64.00;;;;;;5013535;28;20064;-56
2023/09/18 06:18:22;;;;;;;14.48;12.25;;;20.00;64.00;;;;;;5013783;28;20034;-58
2023/09/18 06:20:49;;;;;;;14.13;11.30;;;20.00;64.10;;;;;;5013232;28;20084;-58
2023/09/18 06:23:15;;;;;;;15.55;12.13;;;20.10;64.30;;;;;;5012301;28;20417;-57
2023/09/18 06:25:41;;;;;;;13.40;11.77;;;20.10;64.10;;;;;;5010632;28;20105;-58
2023/09/18 06:28:06;;;;;;;15.68;12.07;;;20.10;64.10;;;;;;5011604;28;20117;-57
2023/09/18 06:30:33;;;;;;;18.05;12.13;;;20.20;64.10;;;;;;5011491;28;20108;-57
2023/09/18 06:32:59;;;;;;;16.42;12.20;;;20.20;63.90;;;;;;5011532;28;20557;-58
2023/09/18 06:35:25;;;;;;;15.40;12.65;;;20.30;63.70;;;;;;5011515;28;20486;-58
2023/09/18 06:37:51;;;;;;;17.02;12.88;;;20.40;63.60;;;;;;5011953;28;20080;-58
2023/09/18 06:40:17;;;;;;;14.77;12.82;;;20.40;63.40;;;;;;5013025;28;20026;-58
2023/09/18 06:42:43;;;;;;;15.70;13.02;;;20.50;63.40;;;;;;5011822;28;20030;-58
2023/09/18 06:45:09;;;;;;;13.60;12.18;;;20.60;63.20;;;;;;5011302;28;20022;-58
2023/09/18 06:47:34;;;;;;;13.68;11.38;;;20.60;63.20;;;;;;5011290;28;20045;-58
2023/09/18 06:50:00;;;;;;;16.65;12.40;;;20.70;63.20;;;;;;5011329;28;20022;-57
2023/09/18 06:52:27;;;;;;;13.20;11.80;;;20.80;63.30;;;;;;5010956;28;20121;-57
2023/09/18 06:54:53;;;;;;;18.17;12.00;;;20.80;63.20;;;;;;5011281;28;20109;-58
2023/09/18 06:57:21;;;;;;;16.20;12.27;;;20.90;63.20;;;;;;5010683;28;20161;-58
2023/09/18 06:59:46;;;;;;;15.18;12.85;;;21.00;63.50;;;;;;5012503;28;20107;-58
2023/09/18 07:02:14;;;;;;;16.95;12.77;;;21.00;63.20;;;;;;5012706;28;20527;-58
2023/09/18 07:04:44;;;;;;;19.48;15.35;;;21.10;63.30;;;;;;5012800;28;20080;-57
2023/09/18 07:07:13;;;;;;;21.55;17.08;;;21.10;63.30;;;;;;5011708;28;20034;-58
2023/09/18 07:09:42;;;;;;;29.67;20.80;;;21.20;63.90;;;;;;5012301;28;20360;-57
2023/09/18 07:12:11;;;;;;;28.17;20.00;;;21.20;64.50;;;;;;5011780;28;20038;-57
2023/09/18 07:14:37;;;;;;;34.88;23.65;;;21.30;64.20;;;;;;5012170;28;20033;-58
2023/09/18 07:17:04;;;;;;;38.53;26.25;;;21.30;64.40;;;;;;5012279;28;20030;-58
2023/09/18 07:19:29;;;;;;;40.10;26.00;;;21.30;64.70;;;;;;5012983;28;20026;-58
2023/09/18 07:21:55;;;;;;;42.45;28.10;;;21.30;65.10;;;;;;5012597;28;20029;-58
2023/09/18 07:24:21;;;;;;;41.65;28.00;;;21.40;65.30;;;;;;5012077;28;20417;-58
2023/09/18 07:26:48;;;;;;;37.50;26.10;;;21.40;65.10;;;;;;5012919;28;20036;-58
2023/09/18 07:29:15;;;;;;;38.22;26.42;;;21.50;65.20;;;;;;5012249;28;20022;-58
2023/09/18 07:31:41;;;;;;;36.35;26.98;;;21.50;65.20;;;;;;5011057;28;20038;-58
2023/09/18 07:34:07;;;;;;;34.75;25.02;;;21.50;65.30;;;;;;5010452;28;20081;-57
2023/09/18 07:36:32;;;;;;;27.83;20.38;;;21.60;66.30;;;;;;5010224;28;20021;-58
2023/09/18 07:38:58;;;;;;;21.25;17.38;;;21.60;65.10;;;;;;5010254;28;20033;-59
2023/09/18 07:41:25;;;;;;;17.15;13.48;;;21.60;64.50;;;;;;5010511;28;20025;-58
2023/09/18 07:43:50;;;;;;;30.27;21.35;;;21.70;63.50;;;;;;5010453;28;20105;-58
2023/09/18 07:46:16;;;;;;;28.40;20.85;;;21.70;64.00;;;;;;5007265;28;20112;-58
2023/09/18 07:48:42;;;;;;;29.73;22.48;;;21.70;63.90;;;;;;5008571;28;20551;-57
2023/09/18 07:51:11;;;;;;;26.05;21.58;;;21.80;64.30;;;;;;5005931;28;20577;-58
2023/09/18 07:53:37;;;;;;;28.45;22.58;;;21.80;64.20;;;;;;5002944;28;20037;-57
2023/09/18 07:56:04;;;;;;;30.52;20.75;;;21.80;64.00;;;;;;4999083;28;20506;-58
2023/09/18 07:58:30;;;;;;;30.25;20.00;;;21.80;64.20;;;;;;4990567;28;20035;-57
2023/09/18 08:00:59;;;;;;;23.45;18.10;;;21.90;64.20;;;;;;4991763;28;20023;-58
2023/09/18 08:03:26;;;;;;;23.83;18.10;;;21.90;64.20;;;;;;4989515;28;20029;-58
2023/09/18 08:05:53;;;;;;;23.02;17.73;;;21.90;64.60;;;;;;4990899;28;20036;-58
2023/09/18 08:08:23;;;;;;;21.60;15.95;;;21.90;64.30;;;;;;4986599;28;20395;-58
2023/09/18 08:10:49;;;;;;;20.90;17.20;;;21.90;64.00;;;;;;4975931;28;20022;-58
2023/09/18 08:13:16;;;;;;;19.95;16.10;;;21.90;64.00;;;;;;4986716;28;20124;-58
2023/09/18 08:15:43;;;;;;;18.05;16.23;;;22.00;64.60;;;;;;4993841;28;20406;-57
2023/09/18 08:18:10;;;;;;;16.33;13.80;;;22.00;65.30;;;;;;4983546;28;20033;-57
2023/09/18 08:20:37;;;;;;;14.65;11.07;;;22.00;64.90;;;;;;4986276;28;20014;-59
2023/09/18 08:23:05;;;;;;;16.52;13.43;;;21.90;64.30;;;;;;4986784;28;20035;-57
2023/09/18 08:25:31;;;;;;;17.13;12.45;;;22.00;64.50;;;;;;4989776;28;20033;-58
2023/09/18 08:27:57;;;;;;;17.50;12.10;;;22.00;64.40;;;;;;4983911;28;20037;-58
2023/09/18 08:30:22;;;;;;;14.25;12.25;;;22.00;64.20;;;;;;4983046;28;20038;-58
2023/09/18 08:32:48;;;;;;;16.20;11.75;;;22.00;65.20;;;;;;4983442;28;20030;-58
2023/09/18 08:35:13;;;;;;;16.55;13.07;;;22.00;65.30;;;;;;4979623;28;20061;-58
2023/09/18 08:37:43;;;;;;;19.95;12.85;;;22.00;65.60;;;;;;4984959;28;20046;-58
2023/09/18 08:40:13;;;;;;;14.52;12.45;;;22.00;66.20;;;;;;4967687;28;20051;-58
2023/09/18 08:42:49;;;;;;;18.08;12.95;;;22.00;66.70;;;;;;4983569;28;20065;-58
2023/09/18 08:45:31;;;;;;;16.40;12.80;;;22.00;67.10;;;;;;4988642;28;20509;-58
2023/09/18 08:47:57;;;;;;;15.82;12.48;;;21.90;67.10;;;;;;4982692;28;20030;-58
2023/09/18 08:50:23;;;;;;;16.58;12.38;;;21.90;67.10;;;;;;4996305;28;20363;-58
2023/09/18 08:52:49;;;;;;;15.02;12.27;;;21.90;67.10;;;;;;4983958;28;20085;-58
2023/09/18 08:55:16;;;;;;;14.23;11.70;;;21.90;66.90;;;;;;4981556;28;20037;-58
2023/09/18 08:57:44;;;;;;;14.82;10.93;;;21.90;66.70;;;;;;4986341;28;20102;-58
2023/09/18 09:00:16;;;;;;;14.40;10.98;;;21.90;66.60;;;;;;4989196;28;20041;-58
2023/09/18 09:02:43;;;;;;;11.45;10.25;;;21.90;66.80;;;;;;4983328;28;20145;-58
2023/09/18 09:05:08;;;;;;;11.82;10.35;;;21.90;66.90;;;;;;4983134;28;20054;-58
2023/09/18 09:07:34;;;;;;;11.15;9.65;;;21.90;67.00;;;;;;4984178;28;20054;-58
2023/09/18 09:10:00;;;;;;;11.32;10.20;;;21.90;66.80;;;;;;4982988;28;20073;-58
2023/09/18 09:12:53;;;;;;;11.10;9.70;;;21.90;67.10;;;;;;4982718;28;20046;-58
2023/09/18 09:15:21;;;;;;;10.80;9.02;;;21.90;67.30;;;;;;4990138;28;20560;-57
2023/09/18 09:17:46;;;;;;;11.77;10.00;;;21.90;67.80;;;;;;4987100;28;20399;-57
2023/09/18 09:20:14;;;;;;;10.98;9.07;;;21.90;68.00;;;;;;4982486;28;20022;-58
2023/09/18 09:22:40;;;;;;;10.48;8.77;;;21.90;68.30;;;;;;4989695;28;20081;-58
2023/09/18 09:25:21;;;;;;;10.32;9.20;;;21.90;68.20;;;;;;4986956;28;20045;-57
2023/09/18 09:27:47;;;;;;;10.15;8.70;;;21.90;68.20;;;;;;4984016;28;20031;-58
2023/09/18 09:30:23;;;;;;;10.20;9.20;;;21.90;68.80;;;;;;4985753;28;20049;-57
2023/09/18 09:32:50;;;;;;;9.98;8.90;;;21.90;68.30;;;;;;4991596;28;20118;-59
2023/09/18 09:35:27;;;;;;;10.90;9.27;;;21.90;68.30;;;;;;4989374;28;20113;-59
2023/09/18 09:37:56;;;;;;;12.45;8.98;;;21.90;68.50;;;;;;4988307;28;20722;-57
2023/09/18 09:40:22;;;;;;;10.23;9.10;;;21.90;68.60;;;;;;4981003;28;20037;-58
2023/09/18 09:42:53;;;;;;;9.60;8.60;;;21.90;68.80;;;;;;4979804;28;20542;-57
2023/09/18 09:45:19;;;;;;;9.75;8.77;;;22.00;69.10;;;;;;4986906;28;20086;-59
2023/09/18 09:47:45;;;;;;;10.32;8.70;;;22.00;69.50;;;;;;4989710;28;20525;-58
2023/09/18 09:50:18;;;;;;;9.00;7.88;;;22.00;69.40;;;;;;4991667;28;20117;-58
2023/09/18 09:52:48;;;;;;;11.90;8.55;;;22.00;69.60;;;;;;4987400;28;20030;-58
2023/09/18 09:55:31;;;;;;;12.88;8.10;;;22.00;69.50;;;;;;4988062;28;20122;-59
2023/09/18 09:58:08;;;;;;;8.20;7.40;;;22.00;69.20;;;;;;5007552;28;20482;-58
2023/09/18 10:00:40;;;;;;;8.82;7.90;;;22.00;69.70;;;;;;5006654;28;20037;-58
2023/09/18 10:03:08;;;;;;;8.93;8.02;;;22.00;69.80;;;;;;5014213;28;20033;-58
2023/09/18 10:05:39;;;;;;;8.85;7.97;;;22.00;69.90;;;;;;5006047;28;20036;-57
2023/09/18 10:08:09;;;;;;;;;;;22.00;69.80;;;;;;5005840;28;20037;-57
2023/09/18 10:10:42;;;;;;;9.60;7.80;;;21.90;69.80;;;;;;5003399;28;20337;-58
2023/09/18 10:13:46;;;;;;;8.68;7.22;;;21.90;69.80;;;;;;5005632;28;20151;-58
2023/09/18 10:16:13;;;;;;;19.45;8.93;;;22.00;69.30;;;;;;4991252;28;20049;-58
2023/09/18 10:18:50;;;;;;;8.07;7.28;;;22.00;69.90;;;;;;5006292;28;20049;-62
2023/09/18 10:21:48;;;;;;;8.35;7.38;;;22.00;70.30;;;;;;5010364;28;20029;-57
2023/09/18 10:24:18;;;;;;;8.25;7.45;;;22.00;70.70;;;;;;4982783;28;20117;-57
2023/09/18 10:26:51;;;;;;;8.48;7.63;;;22.00;70.00;;;;;;5004528;28;20048;-58
2023/09/18 10:29:19;;;;;;;10.15;7.50;;;22.00;70.10;;;;;;5005336;28;20501;-58
2023/09/18 10:31:45;;;;;;;8.20;7.40;;;22.00;70.60;;;;;;5004708;28;20029;-58
2023/09/18 10:34:13;;;;;;;10.32;7.38;;;22.00;70.30;;;;;;5003672;28;20104;-57
2023/09/18 10:36:41;;;;;;;8.57;7.68;;;22.00;70.40;;;;;;5006119;28;20033;-57
2023/09/18 10:39:12;;;;;;;9.27;7.78;;;22.00;70.40;;;;;;5007831;28;20033;-58
2023/09/18 10:41:39;;;;;;;9.50;7.57;;;22.10;70.50;;;;;;5010806;28;20029;-58
2023/09/18 10:44:05;;;;;;;8.63;7.53;;;22.10;70.50;;;;;;5006586;28;20225;-58
2023/09/18 10:46:32;;;;;;;10.13;7.85;;;22.10;70.80;;;;;;5014592;28;20489;-58
2023/09/18 10:49:00;;;;;;;8.55;7.65;;;22.10;70.70;;;;;;5011610;28;20514;-58
2023/09/18 10:51:27;;;;;;;8.25;7.38;;;22.10;71.00;;;;;;5010630;28;20116;-58
2023/09/18 10:53:53;;;;;;;9.82;7.53;;;22.10;71.30;;;;;;5015395;28;20057;-58
2023/09/18 10:56:22;;;;;;;8.80;7.45;;;22.10;70.30;;;;;;5003758;28;20518;-57
2023/09/18 10:58:57;;;;;;;8.80;7.60;;;22.10;70.20;;;;;;5001881;28;20034;-57
2023/09/18 11:01:23;;;;;;;7.80;7.00;;;22.10;71.00;;;;;;5007248;28;20022;-58
2023/09/18 11:03:51;;;;;;;8.43;6.80;;;22.10;70.50;;;;;;5006323;28;20029;-58
2023/09/18 11:06:21;;;;;;;10.13;8.00;;;22.10;70.00;;;;;;5006340;28;20104;-57
2023/09/18 11:08:49;;;;;;;9.63;7.68;;;22.10;70.10;;;;;;5001372;28;20037;-57
2023/09/18 11:11:20;;;;;;;8.82;7.35;;;22.10;70.50;;;;;;5007302;28;20053;-57
2023/09/18 11:13:54;;;;;;;7.65;6.85;;;22.20;70.70;;;;;;5009349;28;20045;-58
2023/09/18 11:16:26;;;;;;;9.18;7.30;;;22.20;70.80;;;;;;5009532;28;20034;-57
2023/09/18 11:18:58;;;;;;;7.90;7.10;;;22.20;70.50;;;;;;5009103;28;20493;-58
2023/09/18 11:21:26;;;;;;;8.27;7.47;;;22.20;70.50;;;;;;5005167;28;20034;-57
2023/09/18 11:24:18;;;;;;;8.38;7.10;;;22.20;70.70;;;;;;5006232;28;20406;-58
2023/09/18 11:26:47;;;;;;;7.43;6.55;;;22.20;70.50;;;;;;5008338;28;20038;-57
2023/09/18 11:29:21;;;;;;;8.50;7.60;;;22.20;70.40;;;;;;5008415;28;20034;-57
2023/09/18 11:31:51;;;;;;;7.88;7.07;;;22.20;69.60;;;;;;5002786;28;20041;-57
2023/09/18 11:34:27;;;;;;;8.50;7.63;;;22.20;69.40;;;;;;5007161;28;20394;-58
2023/09/18 11:36:53;;;;;;;7.63;6.20;;;22.20;69.00;;;;;;4997734;28;20034;-57
2023/09/18 11:39:38;;;;;;;8.20;6.55;;;22.20;69.00;;;;;;5003671;28;20493;-58
2023/09/18 11:42:08;;;;;;;8.93;6.78;;;22.20;69.70;;;;;;5003469;28;20030;-58
2023/09/18 11:44:36;;;;;;;8.05;7.22;;;22.20;70.30;;;;;;5003796;28;20434;-57
2023/09/18 11:47:04;;;;;;;7.95;7.15;;;22.20;71.00;;;;;;5007709;28;20579;-57
2023/09/18 11:49:31;;;;;;;8.50;7.35;;;22.20;71.40;;;;;;5009672;28;20026;-58
2023/09/18 11:52:01;;;;;;;10.93;8.25;;;22.20;70.50;;;;;;5007253;28;20062;-58
2023/09/18 11:54:29;;;;;;;7.97;7.13;;;22.20;70.20;;;;;;5000862;28;20025;-58
2023/09/18 11:56:55;;;;;;;7.90;6.82;;;22.20;69.60;;;;;;5007154;28;20049;-58
2023/09/18 11:59:35;;;;;;;10.27;7.45;;;22.20;69.40;;;;;;5000808;28;20026;-58
2023/09/18 12:02:05;;;;;;;8.35;6.93;;;22.20;69.40;;;;;;5006586;28;20212;-59
2023/09/18 12:04:32;;;;;;;9.55;7.40;;;22.20;70.00;;;;;;5004367;28;20033;-58
2023/09/18 12:07:03;;;;;;;7.82;7.07;;;22.10;70.10;;;;;;5006224;28;20552;-59
2023/09/18 12:09:32;;;;;;;8.33;7.47;;;22.20;70.30;;;;;;5004765;28;20029;-58
2023/09/18 12:12:04;;;;;;;10.57;7.03;;;22.10;70.50;;;;;;5002662;28;20100;-58
2023/09/18 12:14:32;;;;;;;7.93;7.13;;;22.10;70.50;;;;;;5001394;28;20052;-58
2023/09/18 12:17:03;;;;;;;7.75;6.78;;;22.10;69.80;;;;;;5006933;28;20041;-57
2023/09/18 12:19:29;;;;;;;7.00;6.18;;;22.10;68.90;;;;;;5004332;28;20378;-58
2023/09/18 12:21:54;;;;;;;7.53;6.80;;;22.10;68.20;;;;;;5003501;28;20040;-58
2023/09/18 12:24:25;;;;;;;6.97;6.30;;;22.20;67.80;;;;;;5004912;28;20026;-58
2023/09/18 12:26:52;;;;;;;6.68;5.78;;;22.20;66.10;;;;;;4991725;28;20026;-58
2023/09/18 12:29:18;;;;;;;7.05;6.15;;;22.20;65.50;;;;;;5008547;28;20038;-61
2023/09/18 12:31:45;;;;;;;7.40;5.97;;;22.20;65.40;;;;;;5000472;28;20177;-58
2023/09/18 12:34:15;;;;;;;6.95;5.70;;;22.20;64.90;;;;;;5006592;28;20419;-58
2023/09/18 12:36:43;;;;;;;7.27;6.00;;;22.30;63.30;;;;;;5003078;28;20037;-57